Sendai, Japan
Current Conditions -  °F | °C
As of 5:00 PM on Wednesday 22 Oct 2014 (Local Time) from RJSS Reporting Station
Rain Showers Rain Showers  
Wind Chill: 54°   Ceiling: 2500
Heat Index: 54°   Visibility: 6mi
Dew Point: 50°   Wind: 7mph
Humidity: 88%   Direction: 340°NNW
Pressure: 29.97"   Gusts: NA
Location:  38.26°N, 140.89°E
Report Text: RJSS 220800Z 34006KT 9999 -SHRA FEW010 SCT015 BKN025 12/10 Q1015
Loading
Personal Weather Stations






























Interactive Weather Map
Tropical Storm Tracking
New forecast layout! Learn more

10-Day Weather Forecast

Advertisements
Track Severe Weather on mobile